Time;durP1;ratioP1;P1;durP2;ratioP2;P2;SDS_P1;SDS_P2;PMS_P1;PMS_P2;Temp;Humidity;BMP_temperature;BMP_pressure;BME280_temperature;BME280_humidity;BME280_pressure;Samples;Min_cycle;Max_cycle;Signal;HPM_P1;HPM_P2
2023/06/15 00:01:06;;;;;;;3.83;3.40;;;;;;;;;;5018163;28;20117;-70
2023/06/15 00:03:31;;;;;;;6.75;3.55;;;;;;;;;;5020543;28;20037;-71
2023/06/15 00:05:57;;;;;;;4.18;3.78;;;;;;;;;;5009372;28;20499;-71
2023/06/15 00:08:23;;;;;;;6.38;3.40;;;;;;;;;;5020772;28;20053;-71
2023/06/15 00:10:48;;;;;;;5.05;3.78;;;;;;;;;;5020276;28;20118;-71
2023/06/15 00:13:16;;;;;;;5.10;4.32;;;;;;;;;;5020290;28;20052;-71
2023/06/15 00:15:42;;;;;;;6.35;3.70;;;;;;;;;;5019605;28;20052;-72
2023/06/15 00:18:07;;;;;;;5.45;3.70;;;;;;;;;;5019155;28;20053;-72
2023/06/15 00:20:33;;;;;;;6.47;3.90;;;;;;;;;;5017893;28;20045;-72
2023/06/15 00:22:59;;;;;;;4.35;3.90;;;;;;;;;;5020204;28;20049;-72
2023/06/15 00:25:24;;;;;;;4.10;3.70;;;;;;;;;;5021913;28;20091;-72
2023/06/15 00:27:50;;;;;;;8.05;3.97;;;;;;;;;;5022552;28;20409;-72
2023/06/15 00:30:16;;;;;;;5.82;4.13;;;;;;;;;;5021671;28;20132;-72
2023/06/15 00:32:42;;;;;;;4.80;3.67;;;;;;;;;;5025248;28;20037;-70
2023/06/15 00:35:08;;;;;;;4.40;3.75;;;;;;;;;;5006101;28;20041;-72
2023/06/15 00:37:34;;;;;;;5.60;3.70;;;;;;;;;;5022396;28;20996;-72
2023/06/15 00:40:00;;;;;;;4.15;3.70;;;;;;;;;;5023480;28;20045;-72
2023/06/15 00:42:29;;;;;;;4.43;3.95;;;;;;;;;;5023090;28;20049;-71
2023/06/15 00:44:56;;;;;;;5.45;4.25;;;;;;;;;;5004517;28;20041;-71
2023/06/15 00:47:22;;;;;;;8.15;3.97;;;;;;;;;;5021123;28;20052;-71
2023/06/15 00:49:48;;;;;;;6.20;3.95;;;;;;;;;;5020545;28;20046;-72
2023/06/15 00:52:16;;;;;;;7.25;3.50;;;;;;;;;;5021105;28;20084;-71
2023/06/15 00:54:43;;;;;;;4.60;3.83;;;;;;;;;;5021240;28;20421;-71
2023/06/15 00:57:09;;;;;;;7.47;4.00;;;;;;;;;;5021763;28;20041;-71
2023/06/15 00:59:35;;;;;;;5.10;4.40;;;;;;;;;;5022409;28;20045;-71
2023/06/15 01:02:03;;;;;;;4.45;3.85;;;;;;;;;;5022079;28;20068;-72
2023/06/15 01:04:29;;;;;;;6.30;3.90;;;;;;;;;;5022108;28;20052;-71
2023/06/15 01:07:02;;;;;;;5.72;3.70;;;;;;;;;;5021548;28;20065;-71
2023/06/15 01:09:30;;;;;;;4.25;3.78;;;;;;;;;;5022093;28;20061;-71
2023/06/15 01:11:58;;;;;;;4.95;3.55;;;;;;;;;;5020219;28;20091;-72
2023/06/15 01:14:26;;;;;;;4.00;3.60;;;;;;;;;;5022017;28;20034;-72
2023/06/15 01:16:57;;;;;;;8.30;4.10;;;;;;;;;;5021031;28;20475;-71
2023/06/15 01:19:57;;;;;;;6.80;3.90;;;;;;;;;;5010472;28;20144;-71
2023/06/15 01:22:45;;;;;;;4.88;3.63;;;;;;;;;;4995433;28;20103;-71
2023/06/15 01:26:00;;;;;;;6.30;3.95;;;;;;;;;;5021549;28;20111;-71
2023/06/15 01:28:26;;;;;;;6.70;3.85;;;;;;;;;;4988927;28;20046;-71
2023/06/15 01:30:53;;;;;;;4.55;4.10;;;;;;;;;;5037996;28;20060;-70
2023/06/15 01:33:21;;;;;;;4.40;4.00;;;;;;;;;;5017243;28;20068;-71
2023/06/15 01:35:46;;;;;;;5.82;4.07;;;;;;;;;;5013083;28;20045;-73
2023/06/15 01:38:13;;;;;;;12.52;4.00;;;;;;;;;;5022532;28;20055;-71
2023/06/15 01:40:44;;;;;;;5.68;3.80;;;;;;;;;;5018781;28;20042;-71
2023/06/15 01:43:12;;;;;;;6.03;3.80;;;;;;;;;;5022268;28;20107;-71
2023/06/15 01:45:39;;;;;;;9.73;3.80;;;;;;;;;;5023341;28;20272;-70
2023/06/15 01:48:06;;;;;;;8.52;3.95;;;;;;;;;;5010963;28;20053;-70
2023/06/15 01:50:33;;;;;;;6.25;3.72;;;;;;;;;;5021862;28;20045;-71
2023/06/15 01:52:59;;;;;;;6.93;4.03;;;;;;;;;;5022633;28;20339;-72
2023/06/15 01:55:25;;;;;;;5.55;3.70;;;;;;;;;;5021513;28;20067;-72
2023/06/15 01:57:52;;;;;;;4.65;3.97;;;;;;;;;;5003215;28;20494;-71
2023/06/15 02:00:19;;;;;;;8.43;4.30;;;;;;;;;;5019643;28;20060;-72
2023/06/15 02:02:44;;;;;;;4.10;3.70;;;;;;;;;;5021602;28;20045;-71
2023/06/15 02:05:10;;;;;;;7.53;3.92;;;;;;;;;;5037149;28;20041;-71
2023/06/15 02:07:36;;;;;;;9.20;3.78;;;;;;;;;;5030024;28;20400;-71
2023/06/15 02:10:02;;;;;;;5.25;3.83;;;;;;;;;;5022187;28;20132;-72
2023/06/15 02:12:28;;;;;;;4.50;4.10;;;;;;;;;;5025409;28;20080;-72
2023/06/15 02:15:02;;;;;;;5.78;4.00;;;;;;;;;;5029945;28;20052;-72
2023/06/15 02:17:30;;;;;;;4.43;3.97;;;;;;;;;;5020111;28;20045;-71
2023/06/15 02:19:57;;;;;;;4.85;3.70;;;;;;;;;;5019513;28;20767;-71
2023/06/15 02:22:23;;;;;;;4.55;3.97;;;;;;;;;;5012205;28;20045;-71
2023/06/15 02:24:48;;;;;;;6.07;4.05;;;;;;;;;;5028675;28;20413;-73
2023/06/15 02:27:14;;;;;;;6.53;3.97;;;;;;;;;;5031531;28;20390;-71
2023/06/15 02:29:40;;;;;;;4.70;3.90;;;;;;;;;;5020019;28;20387;-71
2023/06/15 02:32:06;;;;;;;5.35;3.90;;;;;;;;;;5021330;28;20049;-71
2023/06/15 02:34:32;;;;;;;9.18;4.35;;;;;;;;;;5036894;28;20410;-72
2023/06/15 02:36:58;;;;;;;10.40;3.88;;;;;;;;;;5007909;28;20104;-72
2023/06/15 02:39:24;;;;;;;5.70;3.72;;;;;;;;;;4997242;28;20038;-70
2023/06/15 02:41:50;;;;;;;4.78;3.80;;;;;;;;;;5030740;28;20045;-72
2023/06/15 02:44:16;;;;;;;8.82;3.50;;;;;;;;;;5019356;28;20041;-72
2023/06/15 02:46:42;;;;;;;4.07;3.65;;;;;;;;;;5019090;28;20041;-73
2023/06/15 02:49:08;;;;;;;7.22;4.25;;;;;;;;;;5018814;28;20191;-74
2023/06/15 02:51:37;;;;;;;5.97;4.00;;;;;;;;;;5035789;28;20049;-70
2023/06/15 02:54:04;;;;;;;9.15;4.25;;;;;;;;;;5018444;28;20051;-70
2023/06/15 02:56:30;;;;;;;10.15;4.30;;;;;;;;;;5017963;28;20049;-69
2023/06/15 02:58:57;;;;;;;5.05;3.95;;;;;;;;;;5018571;28;20057;-71
2023/06/15 03:01:38;;;;;;;5.35;4.07;;;;;;;;;;5003662;28;20049;-71
2023/06/15 03:04:09;;;;;;;5.03;4.30;;;;;;;;;;5034361;28;20045;-71
2023/06/15 03:06:37;;;;;;;8.20;4.20;;;;;;;;;;5018445;28;20045;-72
2023/06/15 03:09:06;;;;;;;5.25;3.97;;;;;;;;;;5035136;28;20091;-71
2023/06/15 03:11:33;;;;;;;4.30;3.83;;;;;;;;;;5018451;28;20079;-71
2023/06/15 03:13:59;;;;;;;5.85;4.53;;;;;;;;;;5034550;28;20510;-71
2023/06/15 03:16:32;;;;;;;4.72;4.00;;;;;;;;;;5022203;28;20063;-73
2023/06/15 03:19:00;;;;;;;5.97;4.13;;;;;;;;;;5000935;28;20045;-70
2023/06/15 03:21:29;;;;;;;5.30;4.07;;;;;;;;;;5018458;28;20042;-70
2023/06/15 03:23:57;;;;;;;5.40;4.32;;;;;;;;;;5035435;28;20057;-74
2023/06/15 03:26:23;;;;;;;6.72;4.30;;;;;;;;;;5019952;28;20045;-72
2023/06/15 03:28:49;;;;;;;4.90;4.40;;;;;;;;;;5034796;28;20163;-72
2023/06/15 03:31:18;;;;;;;7.28;4.20;;;;;;;;;;5020540;28;20176;-73
2023/06/15 03:33:45;;;;;;;6.55;4.70;;;;;;;;;;5007594;28;20061;-72
2023/06/15 03:36:13;;;;;;;5.60;4.63;;;;;;;;;;5017712;28;20057;-72
2023/06/15 03:38:41;;;;;;;6.32;4.40;;;;;;;;;;5018082;28;20512;-72
2023/06/15 03:41:07;;;;;;;6.90;4.70;;;;;;;;;;5017748;28;20056;-72
2023/06/15 03:43:33;;;;;;;8.65;4.55;;;;;;;;;;5028002;28;20410;-72
2023/06/15 03:45:58;;;;;;;5.53;4.22;;;;;;;;;;5018561;28;20041;-72
2023/06/15 03:48:24;;;;;;;4.95;4.40;;;;;;;;;;5017325;28;20455;-72
2023/06/15 03:50:49;;;;;;;6.55;4.85;;;;;;;;;;5019014;28;20049;-71
2023/06/15 03:53:15;;;;;;;8.52;4.47;;;;;;;;;;5019303;28;20053;-70
2023/06/15 03:55:41;;;;;;;5.88;4.70;;;;;;;;;;5036102;28;20509;-70
2023/06/15 03:58:06;;;;;;;6.30;4.13;;;;;;;;;;5022460;28;20044;-71
2023/06/15 04:00:31;;;;;;;4.80;4.15;;;;;;;;;;5028653;28;20041;-71
2023/06/15 04:02:57;;;;;;;7.65;4.85;;;;;;;;;;5023211;28;20045;-73
2023/06/15 04:05:23;;;;;;;5.00;4.32;;;;;;;;;;5030364;28;20573;-75
2023/06/15 04:07:51;;;;;;;6.68;4.25;;;;;;;;;;5005209;28;20064;-73
2023/06/15 04:10:16;;;;;;;9.35;4.68;;;;;;;;;;5010871;28;20687;-74
2023/06/15 04:12:43;;;;;;;13.18;4.30;;;;;;;;;;5037553;28;20045;-74
2023/06/15 04:15:09;;;;;;;7.45;4.18;;;;;;;;;;5020913;28;20041;-74
2023/06/15 04:17:37;;;;;;;8.63;4.45;;;;;;;;;;5021467;28;20050;-76
2023/06/15 04:20:05;;;;;;;9.60;4.38;;;;;;;;;;5021905;28;20045;-76
2023/06/15 04:22:30;;;;;;;5.93;3.95;;;;;;;;;;5026865;28;20457;-75
2023/06/15 04:24:57;;;;;;;9.07;4.07;;;;;;;;;;5020842;28;20045;-73
2023/06/15 04:27:23;;;;;;;6.82;4.38;;;;;;;;;;5037723;28;20421;-73
2023/06/15 04:29:52;;;;;;;4.38;3.90;;;;;;;;;;5022026;28;20103;-75
2023/06/15 04:32:19;;;;;;;8.25;3.65;;;;;;;;;;5020286;28;20095;-74
2023/06/15 04:34:45;;;;;;;12.80;4.63;;;;;;;;;;5016581;28;20045;-74
2023/06/15 04:37:12;;;;;;;10.20;4.95;;;;;;;;;;5018122;28;20044;-74
2023/06/15 04:39:38;;;;;;;6.10;4.15;;;;;;;;;;5021188;28;20116;-74
2023/06/15 04:42:08;;;;;;;6.78;4.03;;;;;;;;;;5022442;28;20041;-73
2023/06/15 04:44:34;;;;;;;6.93;3.78;;;;;;;;;;5023493;28;20072;-71
2023/06/15 04:47:00;;;;;;;7.07;4.30;;;;;;;;;;5027270;28;20046;-74
2023/06/15 04:49:25;;;;;;;6.80;4.35;;;;;;;;;;5036597;28;20065;-73
2023/06/15 04:51:51;;;;;;;11.63;5.43;;;;;;;;;;5007220;28;20044;-70
2023/06/15 04:54:17;;;;;;;8.77;4.60;;;;;;;;;;5036108;28;20041;-73
2023/06/15 04:56:43;;;;;;;5.43;4.55;;;;;;;;;;5019556;28;20037;-71
2023/06/15 04:59:08;;;;;;;8.98;5.85;;;;;;;;;;5020499;28;20045;-70
2023/06/15 05:01:34;;;;;;;8.15;4.80;;;;;;;;;;5020688;28;20042;-71
2023/06/15 05:04:00;;;;;;;6.75;4.85;;;;;;;;;;5036691;28;20045;-71
2023/06/15 05:06:26;;;;;;;8.73;4.15;;;;;;;;;;5021014;28;20052;-72
2023/06/15 05:08:52;;;;;;;7.63;4.68;;;;;;;;;;5020109;28;20048;-72
2023/06/15 05:11:17;;;;;;;6.57;4.40;;;;;;;;;;5020642;28;20680;-73
2023/06/15 05:13:44;;;;;;;5.03;4.47;;;;;;;;;;5037420;28;20061;-73
2023/06/15 05:16:10;;;;;;;7.57;3.90;;;;;;;;;;5020627;28;20053;-73
2023/06/15 05:18:35;;;;;;;5.00;4.10;;;;;;;;;;5023926;28;20042;-72
2023/06/15 05:21:01;;;;;;;6.32;4.78;;;;;;;;;;5020750;28;20054;-73
2023/06/15 05:23:31;;;;;;;4.40;3.97;;;;;;;;;;5002248;28;20053;-73
2023/06/15 05:25:58;;;;;;;8.93;4.75;;;;;;;;;;4985106;28;20044;-73
2023/06/15 05:28:24;;;;;;;11.38;4.65;;;;;;;;;;5002164;28;20189;-73
2023/06/15 05:30:50;;;;;;;10.63;5.25;;;;;;;;;;5002956;28;20046;-73
2023/06/15 05:33:15;;;;;;;5.93;4.70;;;;;;;;;;5001708;28;20049;-73
2023/06/15 05:35:41;;;;;;;7.65;4.28;;;;;;;;;;5000850;28;20054;-73
2023/06/15 05:38:06;;;;;;;5.50;4.28;;;;;;;;;;5005032;28;20052;-73
2023/06/15 05:40:34;;;;;;;5.65;4.10;;;;;;;;;;5031863;28;20054;-74
2023/06/15 05:43:00;;;;;;;6.00;4.05;;;;;;;;;;5001307;28;21188;-74
2023/06/15 05:45:27;;;;;;;5.45;3.80;;;;;;;;;;5012426;28;20041;-74
2023/06/15 05:47:53;;;;;;;4.47;4.07;;;;;;;;;;5002809;28;20083;-73
2023/06/15 05:50:19;;;;;;;6.50;3.95;;;;;;;;;;5036658;28;20068;-74
2023/06/15 05:52:44;;;;;;;5.47;4.40;;;;;;;;;;5035291;28;20136;-74
2023/06/15 05:55:10;;;;;;;4.72;3.90;;;;;;;;;;5036740;28;20041;-74
2023/06/15 05:57:35;;;;;;;10.13;4.60;;;;;;;;;;5021600;28;20045;-74
2023/06/15 06:00:03;;;;;;;6.55;3.85;;;;;;;;;;5020971;28;20080;-74
2023/06/15 06:02:41;;;;;;;6.13;4.35;;;;;;;;;;5020373;28;20634;-74
2023/06/15 06:05:07;;;;;;;5.07;4.32;;;;;;;;;;5019563;28;20049;-73
2023/06/15 06:07:32;;;;;;;6.15;4.75;;;;;;;;;;5003274;28;20150;-74
2023/06/15 06:09:58;;;;;;;5.68;4.15;;;;;;;;;;5018770;28;20076;-74
2023/06/15 06:12:23;;;;;;;6.03;4.13;;;;;;;;;;5019970;28;20052;-74
2023/06/15 06:14:49;;;;;;;5.78;3.92;;;;;;;;;;5035354;28;20038;-74
2023/06/15 06:17:14;;;;;;;5.18;4.20;;;;;;;;;;5019286;28;20049;-74
2023/06/15 06:19:40;;;;;;;11.18;4.40;;;;;;;;;;5019106;28;20057;-74
2023/06/15 06:22:05;;;;;;;10.38;4.25;;;;;;;;;;5020297;28;20449;-74
2023/06/15 06:24:31;;;;;;;5.05;4.30;;;;;;;;;;5018245;28;20048;-74
2023/06/15 06:27:00;;;;;;;6.88;4.45;;;;;;;;;;5035624;28;20046;-74
2023/06/15 06:29:25;;;;;;;8.73;4.53;;;;;;;;;;5036079;28;20148;-74
2023/06/15 06:31:50;;;;;;;4.38;3.95;;;;;;;;;;5035218;28;20057;-74
2023/06/15 06:34:16;;;;;;;9.75;4.32;;;;;;;;;;5019881;28;20183;-75
2023/06/15 06:36:41;;;;;;;7.05;4.57;;;;;;;;;;5019965;28;20952;-74
2023/06/15 06:39:07;;;;;;;6.32;4.25;;;;;;;;;;5020479;28;20152;-74
2023/06/15 06:41:32;;;;;;;5.47;4.50;;;;;;;;;;5019145;28;20107;-74
2023/06/15 06:43:58;;;;;;;6.82;4.72;;;;;;;;;;5020238;28;20053;-74
2023/06/15 06:46:23;;;;;;;5.00;4.38;;;;;;;;;;5018226;28;20045;-74
2023/06/15 06:48:49;;;;;;;7.05;4.22;;;;;;;;;;5020257;28;20093;-74
2023/06/15 06:51:15;;;;;;;8.88;4.80;;;;;;;;;;5019184;28;20049;-73
2023/06/15 06:53:41;;;;;;;5.93;4.75;;;;;;;;;;5020513;28;20710;-73
2023/06/15 06:56:06;;;;;;;5.82;4.63;;;;;;;;;;5020242;28;20131;-74
2023/06/15 06:58:31;;;;;;;12.73;4.75;;;;;;;;;;5019392;28;20049;-74
2023/06/15 07:00:57;;;;;;;9.07;4.82;;;;;;;;;;5020307;28;20107;-73
2023/06/15 07:03:23;;;;;;;5.63;4.78;;;;;;;;;;5035514;28;20052;-74
2023/06/15 07:05:49;;;;;;;6.97;4.53;;;;;;;;;;5020361;28;20052;-74
2023/06/15 07:08:14;;;;;;;8.40;4.68;;;;;;;;;;5000778;28;20049;-73
2023/06/15 07:10:40;;;;;;;6.95;4.47;;;;;;;;;;5019743;28;20053;-74
2023/06/15 07:13:05;;;;;;;4.82;4.30;;;;;;;;;;5020376;28;20041;-74
2023/06/15 07:15:31;;;;;;;7.82;4.63;;;;;;;;;;5020287;28;20045;-73
2023/06/15 07:17:58;;;;;;;5.70;4.43;;;;;;;;;;5019334;28;20596;-72
2023/06/15 07:20:23;;;;;;;5.38;4.30;;;;;;;;;;5019050;28;20049;-73
2023/06/15 07:22:48;;;;;;;5.55;4.18;;;;;;;;;;5020106;28;20095;-72
2023/06/15 07:25:14;;;;;;;4.50;4.10;;;;;;;;;;5020373;28;20041;-72
2023/06/15 07:27:39;;;;;;;7.60;4.38;;;;;;;;;;5019926;28;20135;-72
2023/06/15 07:30:06;;;;;;;9.65;4.30;;;;;;;;;;5019613;28;20053;-73
2023/06/15 07:32:31;;;;;;;12.18;4.10;;;;;;;;;;5037694;28;20063;-72
2023/06/15 07:34:56;;;;;;;7.45;3.80;;;;;;;;;;5026699;28;20049;-72
2023/06/15 07:37:22;;;;;;;9.90;4.20;;;;;;;;;;5025240;28;20576;-72
2023/06/15 07:39:47;;;;;;;4.43;3.92;;;;;;;;;;5026221;28;20057;-71
2023/06/15 07:42:13;;;;;;;5.10;4.13;;;;;;;;;;5040350;28;20054;-72
2023/06/15 07:44:38;;;;;;;6.18;3.95;;;;;;;;;;5026604;28;20053;-72
2023/06/15 07:47:04;;;;;;;5.35;4.05;;;;;;;;;;5026533;28;20059;-72
2023/06/15 07:49:29;;;;;;;4.43;3.78;;;;;;;;;;5026367;28;20053;-74
2023/06/15 07:51:55;;;;;;;13.20;4.35;;;;;;;;;;5024181;28;20061;-73
2023/06/15 07:54:20;;;;;;;5.65;3.50;;;;;;;;;;5025727;28;20049;-74
2023/06/15 07:56:46;;;;;;;7.05;3.88;;;;;;;;;;5026540;28;20049;-73
2023/06/15 07:59:12;;;;;;;12.05;4.05;;;;;;;;;;5025011;28;20083;-74
2023/06/15 08:01:37;;;;;;;5.20;3.80;;;;;;;;;;5024764;28;20084;-73
2023/06/15 08:04:03;;;;;;;3.75;3.45;;;;;;;;;;5024636;28;20061;-73
2023/06/15 08:06:28;;;;;;;4.55;3.80;;;;;;;;;;5024832;28;20060;-74
2023/06/15 08:08:54;;;;;;;11.82;3.70;;;;;;;;;;5025985;28;20049;-74
2023/06/15 08:11:19;;;;;;;6.43;3.70;;;;;;;;;;5026416;28;20052;-74
2023/06/15 08:13:45;;;;;;;6.60;3.70;;;;;;;;;;5026193;28;20053;-74
2023/06/15 08:16:10;;;;;;;6.10;3.60;;;;;;;;;;5040289;28;20648;-73
2023/06/15 08:18:37;;;;;;;5.43;3.58;;;;;;;;;;5026231;28;20143;-72
2023/06/15 08:21:02;;;;;;;4.82;3.65;;;;;;;;;;5026226;28;20073;-71
2023/06/15 08:23:28;;;;;;;5.05;3.35;;;;;;;;;;5026500;28;20053;-71
2023/06/15 08:25:53;;;;;;;8.63;3.53;;;;;;;;;;5024403;28;20045;-71
2023/06/15 08:28:20;;;;;;;7.40;3.30;;;;;;;;;;5025847;28;20053;-72
2023/06/15 08:30:45;;;;;;;4.25;3.15;;;;;;;;;;5024280;28;20045;-71
2023/06/15 08:33:10;;;;;;;4.55;3.05;;;;;;;;;;5026424;28;20053;-72
2023/06/15 08:35:36;;;;;;;4.80;3.38;;;;;;;;;;5026059;28;20041;-71
2023/06/15 08:38:01;;;;;;;3.83;3.38;;;;;;;;;;5024280;28;20045;-71
2023/06/15 08:40:27;;;;;;;4.85;3.08;;;;;;;;;;5041227;28;20060;-71
2023/06/15 08:42:52;;;;;;;10.35;3.33;;;;;;;;;;5025503;28;20086;-71
2023/06/15 08:45:19;;;;;;;7.50;3.42;;;;;;;;;;5021582;28;20068;-70
2023/06/15 08:47:45;;;;;;;3.75;3.40;;;;;;;;;;5021939;28;20553;-73
2023/06/15 08:50:10;;;;;;;5.22;3.70;;;;;;;;;;5022345;28;20061;-73
2023/06/15 08:52:38;;;;;;;4.32;3.30;;;;;;;;;;5022605;28;20694;-73
2023/06/15 08:55:04;;;;;;;5.53;3.50;;;;;;;;;;5023004;28;20041;-74
2023/06/15 08:57:35;;;;;;;3.42;3.13;;;;;;;;;;5022559;28;20046;-73
2023/06/15 09:00:05;;;;;;;3.40;2.80;;;;;;;;;;5021401;28;20049;-73
2023/06/15 09:02:31;;;;;;;6.72;3.00;;;;;;;;;;5021156;28;20057;-73
2023/06/15 09:04:57;;;;;;;3.42;3.13;;;;;;;;;;5021693;28;20052;-73
2023/06/15 09:07:23;;;;;;;6.50;3.38;;;;;;;;;;5022686;28;20053;-72
2023/06/15 09:10:11;;;;;;;4.35;3.30;;;;;;;;;;5021414;28;20137;-72
2023/06/15 09:12:48;;;;;;;6.97;3.10;;;;;;;;;;5019286;28;20060;-71
2023/06/15 09:15:32;;;;;;;3.20;2.90;;;;;;;;;;5020946;28;20041;-72
2023/06/15 09:18:00;;;;;;;3.85;2.70;;;;;;;;;;5020869;28;20104;-71
2023/06/15 09:20:28;;;;;;;5.63;3.22;;;;;;;;;;5021355;28;20247;-71
2023/06/15 09:22:59;;;;;;;9.43;3.22;;;;;;;;;;5022149;28;20053;-72
2023/06/15 09:25:25;;;;;;;4.10;2.90;;;;;;;;;;5022141;28;20150;-72
2023/06/15 09:27:58;;;;;;;10.77;3.30;;;;;;;;;;5021306;28;20091;-72
2023/06/15 09:30:42;;;;;;;2.67;2.47;;;;;;;;;;5020526;28;20045;-72
2023/06/15 09:33:14;;;;;;;4.32;3.20;;;;;;;;;;5020960;28;20052;-72
2023/06/15 09:36:05;;;;;;;4.97;2.78;;;;;;;;;;5004364;28;20046;-72
2023/06/15 09:38:40;;;;;;;4.65;2.80;;;;;;;;;;5015375;28;20047;-73
2023/06/15 09:41:07;;;;;;;2.97;2.67;;;;;;;;;;5021521;28;20092;-73
2023/06/15 09:43:38;;;;;;;5.43;2.97;;;;;;;;;;5022404;28;20056;-73
2023/06/15 09:46:10;;;;;;;3.50;2.60;;;;;;;;;;5009188;28;20041;-73
2023/06/15 09:48:40;;;;;;;3.85;3.03;;;;;;;;;;5021840;28;20064;-73
2023/06/15 09:51:06;;;;;;;6.75;3.30;;;;;;;;;;5022345;28;20082;-73
2023/06/15 09:53:32;;;;;;;3.20;2.90;;;;;;;;;;5021473;28;20049;-73
2023/06/15 09:55:59;;;;;;;4.22;3.00;;;;;;;;;;5020464;28;20048;-73
2023/06/15 09:58:24;;;;;;;5.80;3.35;;;;;;;;;;5021259;28;20203;-74
2023/06/15 10:00:52;;;;;;;4.30;2.83;;;;;;;;;;5021427;28;20140;-72
2023/06/15 10:03:22;;;;;;;3.15;2.85;;;;;;;;;;5021456;28;20045;-71
2023/06/15 10:05:54;;;;;;;4.43;3.30;;;;;;;;;;5020455;28;20049;-70
2023/06/15 10:08:26;;;;;;;5.30;2.92;;;;;;;;;;5020457;28;20068;-71
2023/06/15 10:10:55;;;;;;;6.80;3.00;;;;;;;;;;5021490;28;20478;-72
2023/06/15 10:13:32;;;;;;;11.82;3.67;;;;;;;;;;5021410;28;20128;-73
2023/06/15 10:16:00;;;;;;;5.28;3.20;;;;;;;;;;5021038;28;20051;-71
2023/06/15 10:18:26;;;;;;;4.88;2.80;;;;;;;;;;5020657;28;20156;-71
2023/06/15 10:20:58;;;;;;;3.05;2.67;;;;;;;;;;5021645;28;20487;-73
2023/06/15 10:23:28;;;;;;;3.47;3.15;;;;;;;;;;5019795;28;20041;-72
2023/06/15 10:25:55;;;;;;;4.18;2.95;;;;;;;;;;5021038;28;20410;-73
2023/06/15 10:28:24;;;;;;;5.80;3.55;;;;;;;;;;5019808;28;20091;-72
2023/06/15 10:31:15;;;;;;;5.30;3.00;;;;;;;;;;5020967;28;20056;-73
2023/06/15 10:33:55;;;;;;;3.38;2.95;;;;;;;;;;5020760;28;20130;-73
2023/06/15 10:36:25;;;;;;;3.25;2.95;;;;;;;;;;5019308;28;20049;-71
2023/06/15 10:39:06;;;;;;;2.95;2.63;;;;;;;;;;5019684;28;20048;-71
2023/06/15 10:41:32;;;;;;;8.25;2.67;;;;;;;;;;5020664;28;20552;-71
2023/06/15 10:43:59;;;;;;;3.78;3.40;;;;;;;;;;5019961;28;20056;-73
2023/06/15 10:46:26;;;;;;;5.72;2.67;;;;;;;;;;5020335;28;20053;-71
2023/06/15 10:48:53;;;;;;;4.65;2.80;;;;;;;;;;5017549;28;20114;-70
2023/06/15 10:51:21;;;;;;;4.00;2.55;;;;;;;;;;5020589;28;20036;-71
2023/06/15 10:53:47;;;;;;;3.53;2.42;;;;;;;;;;5020620;28;20041;-69
2023/06/15 10:56:19;;;;;;;3.00;2.65;;;;;;;;;;5019820;28;20069;-71
2023/06/15 10:58:58;;;;;;;3.53;2.72;;;;;;;;;;5020135;28;20045;-73
2023/06/15 11:01:26;;;;;;;3.10;2.80;;;;;;;;;;5019222;28;20055;-73
2023/06/15 11:03:56;;;;;;;3.10;2.70;;;;;;;;;;5019786;28;20100;-72
2023/06/15 11:06:43;;;;;;;8.55;2.92;;;;;;;;;;5019744;28;20045;-73
2023/06/15 11:09:16;;;;;;;2.92;2.50;;;;;;;;;;5019599;28;20132;-75
2023/06/15 11:11:42;;;;;;;3.35;2.17;;;;;;;;;;5019093;28;20051;-73
2023/06/15 11:14:21;;;;;;;3.90;2.35;;;;;;;;;;5019321;28;20174;-74
2023/06/15 11:17:20;;;;;;;2.70;2.33;;;;;;;;;;5020113;28;20049;-76
2023/06/15 11:19:46;;;;;;;4.32;2.53;;;;;;;;;;5019622;28;20045;-74
2023/06/15 11:22:27;;;;;;;6.50;2.90;;;;;;;;;;5019359;28;20194;-74
2023/06/15 11:24:54;;;;;;;2.70;2.40;;;;;;;;;;5020768;28;20061;-73
2023/06/15 11:27:23;;;;;;;3.92;2.95;;;;;;;;;;5019891;28;20042;-74
2023/06/15 11:29:55;;;;;;;2.60;2.30;;;;;;;;;;5030450;28;20053;-72
2023/06/15 11:32:26;;;;;;;4.07;2.50;;;;;;;;;;5017968;28;20057;-72
2023/06/15 11:34:56;;;;;;;3.22;2.85;;;;;;;;;;5012398;28;21171;-73
2023/06/15 11:37:22;;;;;;;8.05;3.08;;;;;;;;;;5015807;28;20048;-72
2023/06/15 11:39:48;;;;;;;4.45;3.25;;;;;;;;;;5016945;28;20044;-74
2023/06/15 11:42:15;;;;;;;5.68;3.22;;;;;;;;;;5017318;28;20448;-72
2023/06/15 11:44:41;;;;;;;5.25;3.30;;;;;;;;;;5017244;28;20084;-72
2023/06/15 11:47:10;;;;;;;5.20;2.75;;;;;;;;;;5015413;28;20073;-72
2023/06/15 11:49:36;;;;;;;2.65;2.45;;;;;;;;;;5018137;28;21089;-72
2023/06/15 11:52:05;;;;;;;5.32;2.63;;;;;;;;;;5016611;28;20042;-73
2023/06/15 11:54:31;;;;;;;7.68;2.72;;;;;;;;;;5016586;28;20054;-73
2023/06/15 11:57:00;;;;;;;9.57;3.22;;;;;;;;;;5019578;28;20107;-73
2023/06/15 11:59:27;;;;;;;3.13;2.83;;;;;;;;;;5018804;28;20053;-72
2023/06/15 12:01:57;;;;;;;9.68;3.30;;;;;;;;;;5016040;28;20042;-73
2023/06/15 12:04:23;;;;;;;4.82;2.53;;;;;;;;;;5018752;28;20139;-73
2023/06/15 12:06:49;;;;;;;2.83;2.63;;;;;;;;;;5016572;28;20045;-73
2023/06/15 12:09:16;;;;;;;8.57;2.70;;;;;;;;;;5017532;28;20049;-72
2023/06/15 12:11:43;;;;;;;4.00;2.97;;;;;;;;;;5017244;28;20521;-73
2023/06/15 12:14:11;;;;;;;3.85;2.80;;;;;;;;;;5017549;28;20187;-73
2023/06/15 12:16:38;;;;;;;4.60;2.55;;;;;;;;;;5017567;28;20049;-73
2023/06/15 12:19:08;;;;;;;3.80;2.60;;;;;;;;;;4999957;28;20969;-73
2023/06/15 12:21:37;;;;;;;4.30;2.40;;;;;;;;;;5017740;28;20060;-73
2023/06/15 12:24:11;;;;;;;5.60;2.70;;;;;;;;;;5019969;28;20510;-72
2023/06/15 12:26:37;;;;;;;3.53;2.30;;;;;;;;;;5020250;28;20521;-72
2023/06/15 12:29:14;;;;;;;3.40;2.50;;;;;;;;;;5021225;28;20050;-73
2023/06/15 12:31:41;;;;;;;2.95;2.70;;;;;;;;;;5019617;28;20437;-73
2023/06/15 12:34:11;;;;;;;6.03;2.40;;;;;;;;;;5020212;28;20095;-73
2023/06/15 12:36:38;;;;;;;7.95;3.10;;;;;;;;;;5020334;28;20073;-73
2023/06/15 12:39:11;;;;;;;7.38;2.67;;;;;;;;;;5017842;28;20060;-74
2023/06/15 12:41:38;;;;;;;5.57;2.95;;;;;;;;;;5020071;28;20078;-72
2023/06/15 12:44:05;;;;;;;4.63;2.45;;;;;;;;;;5019123;28;20106;-72
2023/06/15 12:46:33;;;;;;;4.70;2.50;;;;;;;;;;5020726;28;20049;-72
2023/06/15 12:48:58;;;;;;;4.13;2.63;;;;;;;;;;5018139;28;20092;-72
2023/06/15 12:51:23;;;;;;;3.58;2.85;;;;;;;;;;5022917;28;20141;-73
2023/06/15 12:53:49;;;;;;;5.70;2.83;;;;;;;;;;5017684;28;20049;-72
2023/06/15 12:56:14;;;;;;;4.90;2.97;;;;;;;;;;5020035;28;20058;-73
2023/06/15 12:58:40;;;;;;;6.00;2.67;;;;;;;;;;5019801;28;20060;-73
2023/06/15 13:01:05;;;;;;;8.23;2.80;;;;;;;;;;5016648;28;20053;-72
2023/06/15 13:03:31;;;;;;;3.75;2.78;;;;;;;;;;5019905;28;20100;-72
2023/06/15 13:05:56;;;;;;;2.97;2.63;;;;;;;;;;5019309;28;20053;-71
2023/06/15 13:08:22;;;;;;;4.00;2.50;;;;;;;;;;5019183;28;20065;-73
2023/06/15 13:10:47;;;;;;;5.93;2.72;;;;;;;;;;5021686;28;20052;-73
2023/06/15 13:13:13;;;;;;;4.93;2.63;;;;;;;;;;5021472;28;20060;-73
2023/06/15 13:15:38;;;;;;;9.07;3.50;;;;;;;;;;5021035;28;20049;-72
2023/06/15 13:18:04;;;;;;;4.82;2.90;;;;;;;;;;5020334;28;20052;-73
2023/06/15 13:20:29;;;;;;;4.90;2.85;;;;;;;;;;5004597;28;20095;-73
2023/06/15 13:22:55;;;;;;;10.63;2.63;;;;;;;;;;5020320;28;20491;-72
2023/06/15 13:25:20;;;;;;;3.05;2.67;;;;;;;;;;5022219;28;20049;-72
2023/06/15 13:27:47;;;;;;;3.00;2.80;;;;;;;;;;5021484;28;20557;-73
2023/06/15 13:30:13;;;;;;;2.95;2.75;;;;;;;;;;5020234;28;20516;-73
2023/06/15 13:32:40;;;;;;;9.65;2.88;;;;;;;;;;5022127;28;20137;-72
2023/06/15 13:35:07;;;;;;;4.40;2.63;;;;;;;;;;5020029;28;20048;-72
2023/06/15 13:37:34;;;;;;;5.18;2.45;;;;;;;;;;5022293;28;20061;-73
2023/06/15 13:40:01;;;;;;;3.25;2.35;;;;;;;;;;5021097;28;20045;-73
2023/06/15 13:42:27;;;;;;;3.13;2.58;;;;;;;;;;5024165;28;20076;-75
2023/06/15 13:44:53;;;;;;;7.82;2.60;;;;;;;;;;5015918;28;20077;-75
2023/06/15 13:47:20;;;;;;;2.85;2.60;;;;;;;;;;5018854;28;20049;-75
2023/06/15 13:49:48;;;;;;;3.15;2.47;;;;;;;;;;5020626;28;20045;-72
2023/06/15 13:52:14;;;;;;;2.55;2.35;;;;;;;;;;5021125;28;20115;-75
2023/06/15 13:54:40;;;;;;;4.65;2.75;;;;;;;;;;5021870;28;20045;-73
2023/06/15 13:57:06;;;;;;;3.58;2.80;;;;;;;;;;5021326;28;20037;-75
2023/06/15 13:59:33;;;;;;;5.70;4.18;;;;;;;;;;5021221;28;21046;-75
2023/06/15 14:02:01;;;;;;;3.90;2.45;;;;;;;;;;5019246;28;20040;-75
2023/06/15 14:04:27;;;;;;;5.63;2.65;;;;;;;;;;5020347;28;20083;-77
2023/06/15 14:06:52;;;;;;;3.53;3.00;;;;;;;;;;5003200;28;20046;-76
2023/06/15 14:09:18;;;;;;;3.85;2.92;;;;;;;;;;5020956;28;20046;-76
2023/06/15 14:11:43;;;;;;;3.97;2.53;;;;;;;;;;5019703;28;20501;-77
2023/06/15 14:14:08;;;;;;;5.07;2.53;;;;;;;;;;5036845;28;20171;-76
2023/06/15 14:16:34;;;;;;;6.53;2.92;;;;;;;;;;5024821;28;20041;-76
2023/06/15 14:19:00;;;;;;;6.05;2.70;;;;;;;;;;5021713;28;20045;-77
2023/06/15 14:21:25;;;;;;;5.50;3.10;;;;;;;;;;5020254;28;20053;-75
2023/06/15 14:23:51;;;;;;;3.35;2.47;;;;;;;;;;5022113;28;20045;-75
2023/06/15 14:26:16;;;;;;;2.97;2.67;;;;;;;;;;5021090;28;20049;-77
2023/06/15 14:28:42;;;;;;;3.22;2.80;;;;;;;;;;5020561;28;20089;-79
2023/06/15 14:31:07;;;;;;;4.50;2.35;;;;;;;;;;5021066;28;20046;-78
2023/06/15 14:33:32;;;;;;;2.85;2.30;;;;;;;;;;5021376;28;20049;-74
2023/06/15 14:35:58;;;;;;;5.13;2.40;;;;;;;;;;5020400;28;20091;-75
2023/06/15 14:38:24;;;;;;;3.92;2.20;;;;;;;;;;5018613;28;20056;-74
2023/06/15 14:40:51;;;;;;;5.03;2.50;;;;;;;;;;5018715;28;20094;-73
2023/06/15 14:43:16;;;;;;;3.65;2.72;;;;;;;;;;5018517;28;20048;-76
2023/06/15 14:45:42;;;;;;;5.00;2.42;;;;;;;;;;5019716;28;20422;-75